sensor_id;sensor_type;location;lat;lon;timestamp;pressure;altitude;pressure_sealevel;temperature;humidity
15193;BME280;7697;51.630;7.484;2022-10-17T00:02:08;101031.69;;;16.14;96.33
15193;BME280;7697;51.630;7.484;2022-10-17T00:07:09;101028.06;;;16.08;96.20
15193;BME280;7697;51.630;7.484;2022-10-17T00:12:11;101027.47;;;16.06;95.99
15193;BME280;7697;51.630;7.484;2022-10-17T00:17:14;101021.84;;;15.96;96.61
15193;BME280;7697;51.630;7.484;2022-10-17T00:22:16;101017.22;;;15.85;97.16
15193;BME280;7697;51.630;7.484;2022-10-17T00:27:17;101024.22;;;15.86;97.30
15193;BME280;7697;51.630;7.484;2022-10-17T00:32:20;101017.91;;;15.81;97.55
15193;BME280;7697;51.630;7.484;2022-10-17T00:37:22;101027.41;;;15.76;97.55
15193;BME280;7697;51.630;7.484;2022-10-17T00:42:23;101020.19;;;15.77;97.93
15193;BME280;7697;51.630;7.484;2022-10-17T00:47:27;101007.31;;;15.74;97.82
15193;BME280;7697;51.630;7.484;2022-10-17T00:52:29;101009.16;;;15.73;98.03
15193;BME280;7697;51.630;7.484;2022-10-17T00:57:31;101004.03;;;15.72;98.34
15193;BME280;7697;51.630;7.484;2022-10-17T01:02:34;101011.22;;;15.71;98.07
15193;BME280;7697;51.630;7.484;2022-10-17T01:07:37;101000.38;;;15.66;98.26
15193;BME280;7697;51.630;7.484;2022-10-17T01:12:48;101002.31;;;15.59;99.27
15193;BME280;7697;51.630;7.484;2022-10-17T01:18:04;101001.28;;;15.60;99.28
15193;BME280;7697;51.630;7.484;2022-10-17T01:23:22;100997.56;;;15.61;99.45
15193;BME280;7697;51.630;7.484;2022-10-17T01:28:50;100998.47;;;15.55;99.42
15193;BME280;7697;51.630;7.484;2022-10-17T01:34:02;100991.91;;;15.51;99.80
15193;BME280;7697;51.630;7.484;2022-10-17T01:39:14;101001.75;;;15.51;99.63
15193;BME280;7697;51.630;7.484;2022-10-17T01:44:19;100998.28;;;15.50;99.84
15193;BME280;7697;51.630;7.484;2022-10-17T01:49:26;100982.84;;;15.52;99.35
15193;BME280;7697;51.630;7.484;2022-10-17T01:54:31;100978.75;;;15.50;100.00
15193;BME280;7697;51.630;7.484;2022-10-17T01:59:37;100980.41;;;15.51;99.58
15193;BME280;7697;51.630;7.484;2022-10-17T02:04:41;100972.00;;;15.54;99.60
15193;BME280;7697;51.630;7.484;2022-10-17T02:09:43;100967.25;;;15.56;99.54
15193;BME280;7697;51.630;7.484;2022-10-17T02:14:57;100968.47;;;15.53;99.40
15193;BME280;7697;51.630;7.484;2022-10-17T02:20:09;100970.13;;;15.54;99.21
15193;BME280;7697;51.630;7.484;2022-10-17T02:25:22;100968.47;;;15.53;99.75
15193;BME280;7697;51.630;7.484;2022-10-17T02:30:31;100961.50;;;15.52;99.47
15193;BME280;7697;51.630;7.484;2022-10-17T02:35:37;100954.38;;;15.46;99.68
15193;BME280;7697;51.630;7.484;2022-10-17T02:40:41;100959.13;;;15.44;99.58
15193;BME280;7697;51.630;7.484;2022-10-17T02:45:45;100965.09;;;15.39;99.90
15193;BME280;7697;51.630;7.484;2022-10-17T02:50:56;100958.53;;;15.42;99.75
15193;BME280;7697;51.630;7.484;2022-10-17T02:56:05;100949.91;;;15.40;99.71
15193;BME280;7697;51.630;7.484;2022-10-17T03:01:11;100962.91;;;15.36;99.60
15193;BME280;7697;51.630;7.484;2022-10-17T03:06:14;100956.16;;;15.34;100.00
15193;BME280;7697;51.630;7.484;2022-10-17T03:11:16;100951.84;;;15.33;100.00
15193;BME280;7697;51.630;7.484;2022-10-17T03:16:18;100937.03;;;15.37;99.82
15193;BME280;7697;51.630;7.484;2022-10-17T03:21:21;100945.03;;;15.37;99.86
15193;BME280;7697;51.630;7.484;2022-10-17T03:26:23;100966.22;;;15.32;99.93
15193;BME280;7697;51.630;7.484;2022-10-17T03:31:25;100954.38;;;15.28;100.00
15193;BME280;7697;51.630;7.484;2022-10-17T03:36:28;100965.03;;;15.28;100.00
15193;BME280;7697;51.630;7.484;2022-10-17T03:41:29;100970.38;;;15.28;100.00
15193;BME280;7697;51.630;7.484;2022-10-17T03:46:31;100976.53;;;15.28;100.00
15193;BME280;7697;51.630;7.484;2022-10-17T03:51:34;100972.66;;;15.24;100.00
15193;BME280;7697;51.630;7.484;2022-10-17T03:56:36;100980.66;;;15.24;100.00
15193;BME280;7697;51.630;7.484;2022-10-17T04:01:38;100980.88;;;15.23;100.00
15193;BME280;7697;51.630;7.484;2022-10-17T04:06:41;100985.03;;;15.19;100.00
15193;BME280;7697;51.630;7.484;2022-10-17T04:11:42;100981.75;;;15.17;100.00
15193;BME280;7697;51.630;7.484;2022-10-17T04:16:44;100971.91;;;15.17;100.00
15193;BME280;7697;51.630;7.484;2022-10-17T04:21:47;100993.66;;;15.21;100.00
15193;BME280;7697;51.630;7.484;2022-10-17T04:26:49;100985.63;;;15.21;100.00
15193;BME280;7697;51.630;7.484;2022-10-17T04:31:51;100983.53;;;15.23;100.00
15193;BME280;7697;51.630;7.484;2022-10-17T04:36:54;100983.13;;;15.26;100.00
15193;BME280;7697;51.630;7.484;2022-10-17T04:41:56;100975.13;;;15.26;100.00
15193;BME280;7697;51.630;7.484;2022-10-17T04:46:57;100989.88;;;15.28;100.00
15193;BME280;7697;51.630;7.484;2022-10-17T04:52:00;100990.91;;;15.27;100.00
15193;BME280;7697;51.630;7.484;2022-10-17T04:57:02;100992.22;;;15.18;100.00
15193;BME280;7697;51.630;7.484;2022-10-17T05:02:04;100989.84;;;15.10;100.00
15193;BME280;7697;51.630;7.484;2022-10-17T05:07:07;100991.50;;;15.05;100.00
15193;BME280;7697;51.630;7.484;2022-10-17T05:12:09;100991.09;;;15.08;100.00
15193;BME280;7697;51.630;7.484;2022-10-17T05:17:10;100995.59;;;15.07;100.00
15193;BME280;7697;51.630;7.484;2022-10-17T05:22:13;100999.34;;;14.99;100.00
15193;BME280;7697;51.630;7.484;2022-10-17T05:27:15;101001.84;;;14.94;100.00
15193;BME280;7697;51.630;7.484;2022-10-17T05:32:17;101000.28;;;14.87;100.00
15193;BME280;7697;51.630;7.484;2022-10-17T05:37:20;101002.56;;;14.83;100.00
15193;BME280;7697;51.630;7.484;2022-10-17T05:42:21;100998.06;;;14.77;100.00
15193;BME280;7697;51.630;7.484;2022-10-17T05:47:23;101015.94;;;14.77;100.00
15193;BME280;7697;51.630;7.484;2022-10-17T05:52:26;101020.03;;;14.79;100.00
15193;BME280;7697;51.630;7.484;2022-10-17T05:57:28;101016.59;;;14.72;100.00
15193;BME280;7697;51.630;7.484;2022-10-17T06:02:30;101024.59;;;14.72;100.00
15193;BME280;7697;51.630;7.484;2022-10-17T06:07:34;101038.94;;;14.71;100.00
15193;BME280;7697;51.630;7.484;2022-10-17T06:12:36;101042.44;;;14.72;100.00
15193;BME280;7697;51.630;7.484;2022-10-17T06:17:37;101030.13;;;14.71;100.00
15193;BME280;7697;51.630;7.484;2022-10-17T06:22:40;101045.09;;;14.72;100.00
15193;BME280;7697;51.630;7.484;2022-10-17T06:27:42;101048.38;;;14.74;100.00
15193;BME280;7697;51.630;7.484;2022-10-17T06:32:44;101062.47;;;14.81;100.00
15193;BME280;7697;51.630;7.484;2022-10-17T06:37:47;101071.91;;;14.83;100.00
15193;BME280;7697;51.630;7.484;2022-10-17T06:42:48;101088.47;;;14.85;100.00
15193;BME280;7697;51.630;7.484;2022-10-17T06:47:50;101099.97;;;14.92;100.00
15193;BME280;7697;51.630;7.484;2022-10-17T06:52:53;101105.44;;;14.97;100.00
15193;BME280;7697;51.630;7.484;2022-10-17T06:57:55;101101.91;;;15.03;100.00
15193;BME280;7697;51.630;7.484;2022-10-17T07:02:57;101099.59;;;15.14;100.00
15193;BME280;7697;51.630;7.484;2022-10-17T07:08:00;101106.69;;;15.26;100.00
15193;BME280;7697;51.630;7.484;2022-10-17T07:13:01;101114.22;;;15.36;100.00
15193;BME280;7697;51.630;7.484;2022-10-17T07:18:03;101116.34;;;15.52;100.00
15193;BME280;7697;51.630;7.484;2022-10-17T07:23:06;101114.50;;;15.77;100.00
15193;BME280;7697;51.630;7.484;2022-10-17T07:28:08;101118.84;;;15.97;100.00
15193;BME280;7697;51.630;7.484;2022-10-17T07:33:10;101122.13;;;16.17;100.00
15193;BME280;7697;51.630;7.484;2022-10-17T07:38:13;101124.34;;;16.38;100.00
15193;BME280;7697;51.630;7.484;2022-10-17T07:43:15;101121.00;;;16.61;100.00
15193;BME280;7697;51.630;7.484;2022-10-17T07:48:16;101120.88;;;16.86;100.00
15193;BME280;7697;51.630;7.484;2022-10-17T07:53:20;101115.38;;;17.11;100.00
15193;BME280;7697;51.630;7.484;2022-10-17T07:58:21;101110.34;;;17.44;100.00
15193;BME280;7697;51.630;7.484;2022-10-17T08:03:23;101113.88;;;17.80;100.00
15193;BME280;7697;51.630;7.484;2022-10-17T08:08:26;101104.03;;;18.09;100.00
15193;BME280;7697;51.630;7.484;2022-10-17T08:13:28;101112.53;;;18.29;100.00
15193;BME280;7697;51.630;7.484;2022-10-17T08:18:30;101110.63;;;18.41;100.00
15193;BME280;7697;51.630;7.484;2022-10-17T08:23:33;101108.41;;;18.50;100.00
15193;BME280;7697;51.630;7.484;2022-10-17T08:28:35;101110.50;;;18.59;100.00
15193;BME280;7697;51.630;7.484;2022-10-17T08:33:37;101115.91;;;18.76;100.00
15193;BME280;7697;51.630;7.484;2022-10-17T08:38:41;101113.34;;;18.98;100.00
15193;BME280;7697;51.630;7.484;2022-10-17T08:44:01;101133.56;;;19.17;100.00
15193;BME280;7697;51.630;7.484;2022-10-17T08:49:11;101131.19;;;19.49;98.67
15193;BME280;7697;51.630;7.484;2022-10-17T08:54:18;101134.84;;;19.76;98.27
15193;BME280;7697;51.630;7.484;2022-10-17T08:59:25;101135.25;;;20.07;97.21
15193;BME280;7697;51.630;7.484;2022-10-17T09:04:40;101139.25;;;20.43;96.07
15193;BME280;7697;51.630;7.484;2022-10-17T09:09:54;101153.00;;;20.68;94.29
15193;BME280;7697;51.630;7.484;2022-10-17T09:15:17;101149.38;;;20.79;93.43
15193;BME280;7697;51.630;7.484;2022-10-17T09:20:27;101145.25;;;20.93;91.47
15193;BME280;7697;51.630;7.484;2022-10-17T09:25:39;101139.13;;;21.03;89.79
15193;BME280;7697;51.630;7.484;2022-10-17T09:30:43;101140.66;;;21.21;89.25
15193;BME280;7697;51.630;7.484;2022-10-17T09:35:47;101162.63;;;21.34;89.21
15193;BME280;7697;51.630;7.484;2022-10-17T09:40:54;101174.78;;;21.37;88.26
15193;BME280;7697;51.630;7.484;2022-10-17T09:46:06;101173.75;;;21.43;87.23
15193;BME280;7697;51.630;7.484;2022-10-17T09:51:09;101184.88;;;21.52;86.73
15193;BME280;7697;51.630;7.484;2022-10-17T09:56:16;101198.22;;;21.68;85.56
15193;BME280;7697;51.630;7.484;2022-10-17T10:01:20;101192.34;;;21.77;86.16
15193;BME280;7697;51.630;7.484;2022-10-17T10:06:22;101208.94;;;21.90;85.31
15193;BME280;7697;51.630;7.484;2022-10-17T10:11:43;101218.78;;;22.06;84.55
15193;BME280;7697;51.630;7.484;2022-10-17T10:16:47;101232.09;;;22.18;83.73
15193;BME280;7697;51.630;7.484;2022-10-17T10:21:54;101231.00;;;22.19;82.66
15193;BME280;7697;51.630;7.484;2022-10-17T10:26:59;101248.78;;;22.15;82.94
15193;BME280;7697;51.630;7.484;2022-10-17T10:32:09;101255.84;;;22.21;82.45
15193;BME280;7697;51.630;7.484;2022-10-17T10:37:17;101263.38;;;22.19;83.26
15193;BME280;7697;51.630;7.484;2022-10-17T10:42:25;101281.75;;;22.22;83.90
15193;BME280;7697;51.630;7.484;2022-10-17T10:47:29;101275.84;;;22.25;83.84
15193;BME280;7697;51.630;7.484;2022-10-17T10:52:34;101286.66;;;22.25;84.01
15193;BME280;7697;51.630;7.484;2022-10-17T10:57:41;101283.41;;;22.23;84.10
15193;BME280;7697;51.630;7.484;2022-10-17T11:02:50;101280.69;;;22.23;83.85
15193;BME280;7697;51.630;7.484;2022-10-17T11:07:59;101287.75;;;22.29;83.97
15193;BME280;7697;51.630;7.484;2022-10-17T11:13:16;101305.00;;;22.28;82.39
15193;BME280;7697;51.630;7.484;2022-10-17T11:18:23;101310.97;;;22.30;82.24
15193;BME280;7697;51.630;7.484;2022-10-17T11:23:31;101329.88;;;22.30;83.13
15193;BME280;7697;51.630;7.484;2022-10-17T11:28:36;101346.63;;;22.32;84.14
15193;BME280;7697;51.630;7.484;2022-10-17T11:33:43;101357.84;;;22.19;84.02
15193;BME280;7697;51.630;7.484;2022-10-17T11:38:49;101357.31;;;22.17;84.26
15193;BME280;7697;51.630;7.484;2022-10-17T11:43:54;101358.31;;;22.11;84.76
15193;BME280;7697;51.630;7.484;2022-10-17T11:49:05;101340.25;;;22.12;83.06
15193;BME280;7697;51.630;7.484;2022-10-17T11:54:11;101346.44;;;22.12;83.47
15193;BME280;7697;51.630;7.484;2022-10-17T11:59:47;101324.09;;;22.17;82.24
15193;BME280;7697;51.630;7.484;2022-10-17T12:04:58;101307.22;;;22.31;82.85
15193;BME280;7697;51.630;7.484;2022-10-17T12:10:15;101321.78;;;22.30;83.40
15193;BME280;7697;51.630;7.484;2022-10-17T12:15:28;101323.16;;;22.38;84.22
15193;BME280;7697;51.630;7.484;2022-10-17T12:20:32;101325.13;;;22.42;83.38
15193;BME280;7697;51.630;7.484;2022-10-17T12:25:36;101320.53;;;22.48;82.16
15193;BME280;7697;51.630;7.484;2022-10-17T12:30:51;101328.94;;;22.52;82.93
15193;BME280;7697;51.630;7.484;2022-10-17T12:41:52;101342.97;;;22.49;82.76
15193;BME280;7697;51.630;7.484;2022-10-17T12:52:57;101358.44;;;22.58;82.41
15193;BME280;7697;51.630;7.484;2022-10-17T12:58:04;101357.06;;;22.56;82.94
15193;BME280;7697;51.630;7.484;2022-10-17T13:03:13;101349.22;;;22.54;83.64
15193;BME280;7697;51.630;7.484;2022-10-17T13:08:18;101361.88;;;22.49;84.01
15193;BME280;7697;51.630;7.484;2022-10-17T13:13:24;101346.97;;;22.41;83.86
15193;BME280;7697;51.630;7.484;2022-10-17T13:18:29;101370.13;;;22.37;84.34
15193;BME280;7697;51.630;7.484;2022-10-17T13:23:33;101363.34;;;22.29;84.65
15193;BME280;7697;51.630;7.484;2022-10-17T13:28:35;101383.25;;;22.23;84.58
15193;BME280;7697;51.630;7.484;2022-10-17T13:33:39;101386.22;;;22.22;84.83
15193;BME280;7697;51.630;7.484;2022-10-17T13:38:41;101396.66;;;22.13;85.67
15193;BME280;7697;51.630;7.484;2022-10-17T13:43:43;101402.28;;;22.06;86.33
15193;BME280;7697;51.630;7.484;2022-10-17T13:48:46;101412.00;;;22.07;86.30
15193;BME280;7697;51.630;7.484;2022-10-17T13:53:49;101413.31;;;22.05;86.56
15193;BME280;7697;51.630;7.484;2022-10-17T13:58:53;101428.69;;;22.04;87.05
15193;BME280;7697;51.630;7.484;2022-10-17T14:03:58;101440.97;;;21.95;87.30
15193;BME280;7697;51.630;7.484;2022-10-17T14:09:01;101428.50;;;21.89;87.52
15193;BME280;7697;51.630;7.484;2022-10-17T14:14:06;101435.66;;;21.79;87.55
15193;BME280;7697;51.630;7.484;2022-10-17T14:19:19;101435.28;;;21.70;87.69
15193;BME280;7697;51.630;7.484;2022-10-17T14:24:27;101439.25;;;21.62;87.88
15193;BME280;7697;51.630;7.484;2022-10-17T14:29:30;101436.47;;;21.57;88.29
15193;BME280;7697;51.630;7.484;2022-10-17T14:34:35;101438.06;;;21.53;88.98
15193;BME280;7697;51.630;7.484;2022-10-17T14:39:37;101439.31;;;21.46;88.63
15193;BME280;7697;51.630;7.484;2022-10-17T14:44:39;101436.28;;;21.42;88.84
15193;BME280;7697;51.630;7.484;2022-10-17T14:49:42;101451.06;;;21.40;88.58
15193;BME280;7697;51.630;7.484;2022-10-17T14:54:45;101455.41;;;21.41;89.20
15193;BME280;7697;51.630;7.484;2022-10-17T14:59:47;101466.94;;;21.36;89.25
15193;BME280;7697;51.630;7.484;2022-10-17T15:04:51;101466.38;;;21.34;89.96
15193;BME280;7697;51.630;7.484;2022-10-17T15:09:53;101484.38;;;21.28;89.97
15193;BME280;7697;51.630;7.484;2022-10-17T15:14:54;101489.91;;;21.22;90.15
15193;BME280;7697;51.630;7.484;2022-10-17T15:19:57;101508.78;;;21.22;90.46
15193;BME280;7697;51.630;7.484;2022-10-17T15:24:59;101519.34;;;21.12;90.77
15193;BME280;7697;51.630;7.484;2022-10-17T15:30:01;101523.53;;;21.03;91.32
15193;BME280;7697;51.630;7.484;2022-10-17T15:35:05;101524.28;;;20.98;92.25
15193;BME280;7697;51.630;7.484;2022-10-17T15:40:12;101523.38;;;20.92;92.21
15193;BME280;7697;51.630;7.484;2022-10-17T15:45:16;101520.00;;;20.85;92.49
15193;BME280;7697;51.630;7.484;2022-10-17T15:50:20;101519.59;;;20.77;92.54
15193;BME280;7697;51.630;7.484;2022-10-17T15:55:22;101530.63;;;20.75;93.25
15193;BME280;7697;51.630;7.484;2022-10-17T16:00:23;101515.34;;;20.64;93.72
15193;BME280;7697;51.630;7.484;2022-10-17T16:05:26;101533.84;;;20.60;94.06
15193;BME280;7697;51.630;7.484;2022-10-17T16:10:29;101549.81;;;20.50;94.78
15193;BME280;7697;51.630;7.484;2022-10-17T16:15:30;101564.00;;;20.46;95.13
15193;BME280;7697;51.630;7.484;2022-10-17T16:20:33;101578.31;;;20.35;96.08
15193;BME280;7697;51.630;7.484;2022-10-17T16:25:35;101588.25;;;20.22;96.51
15193;BME280;7697;51.630;7.484;2022-10-17T16:30:41;101597.66;;;20.20;96.92
15193;BME280;7697;51.630;7.484;2022-10-17T16:35:45;101603.13;;;20.13;96.97
15193;BME280;7697;51.630;7.484;2022-10-17T16:40:48;101618.13;;;20.09;97.42
15193;BME280;7697;51.630;7.484;2022-10-17T16:45:50;101624.47;;;20.03;97.63
15193;BME280;7697;51.630;7.484;2022-10-17T16:50:53;101620.38;;;20.01;98.00
15193;BME280;7697;51.630;7.484;2022-10-17T16:55:58;101618.38;;;19.96;98.03
15193;BME280;7697;51.630;7.484;2022-10-17T17:01:01;101601.66;;;19.94;98.29
15193;BME280;7697;51.630;7.484;2022-10-17T17:06:05;101618.84;;;19.93;98.03
15193;BME280;7697;51.630;7.484;2022-10-17T17:11:08;101613.13;;;19.90;97.97
15193;BME280;7697;51.630;7.484;2022-10-17T17:16:12;101618.72;;;19.88;98.17
15193;BME280;7697;51.630;7.484;2022-10-17T17:21:15;101622.72;;;19.85;98.44
15193;BME280;7697;51.630;7.484;2022-10-17T17:26:19;101613.25;;;19.83;98.43
15193;BME280;7697;51.630;7.484;2022-10-17T17:31:23;101615.81;;;19.78;98.42
15193;BME280;7697;51.630;7.484;2022-10-17T17:36:29;101611.97;;;19.74;98.64
15193;BME280;7697;51.630;7.484;2022-10-17T17:41:31;101608.09;;;19.70;98.93
15193;BME280;7697;51.630;7.484;2022-10-17T17:46:33;101614.53;;;19.69;98.73
15193;BME280;7697;51.630;7.484;2022-10-17T17:51:36;101630.53;;;19.64;99.21
15193;BME280;7697;51.630;7.484;2022-10-17T17:56:38;101648.66;;;19.57;99.29
15193;BME280;7697;51.630;7.484;2022-10-17T18:01:40;101654.72;;;19.52;99.29
15193;BME280;7697;51.630;7.484;2022-10-17T18:06:43;101657.47;;;19.45;99.87
15193;BME280;7697;51.630;7.484;2022-10-17T18:11:44;101665.78;;;19.44;100.00
15193;BME280;7697;51.630;7.484;2022-10-17T18:16:46;101677.22;;;19.39;100.00
15193;BME280;7697;51.630;7.484;2022-10-17T18:21:49;101670.22;;;19.38;99.97
15193;BME280;7697;51.630;7.484;2022-10-17T18:26:51;101677.91;;;19.35;100.00
15193;BME280;7697;51.630;7.484;2022-10-17T18:31:55;101683.97;;;19.30;100.00
15193;BME280;7697;51.630;7.484;2022-10-17T18:36:58;101688.38;;;19.25;100.00
15193;BME280;7697;51.630;7.484;2022-10-17T18:42:01;101707.66;;;19.22;100.00
15193;BME280;7697;51.630;7.484;2022-10-17T18:47:03;101711.25;;;19.16;100.00
15193;BME280;7697;51.630;7.484;2022-10-17T18:52:06;101709.25;;;19.11;100.00
15193;BME280;7697;51.630;7.484;2022-10-17T18:57:08;101709.69;;;19.08;100.00
15193;BME280;7697;51.630;7.484;2022-10-17T19:02:10;101712.16;;;19.09;100.00
15193;BME280;7697;51.630;7.484;2022-10-17T19:07:14;101716.38;;;19.05;100.00
15193;BME280;7697;51.630;7.484;2022-10-17T19:12:19;101712.69;;;19.00;100.00
15193;BME280;7697;51.630;7.484;2022-10-17T19:17:20;101714.22;;;18.96;100.00
15193;BME280;7697;51.630;7.484;2022-10-17T19:22:23;101725.63;;;18.91;100.00
15193;BME280;7697;51.630;7.484;2022-10-17T19:27:25;101724.06;;;18.84;100.00
15193;BME280;7697;51.630;7.484;2022-10-17T19:32:27;101724.50;;;18.81;100.00
15193;BME280;7697;51.630;7.484;2022-10-17T19:37:30;101724.72;;;18.79;100.00
15193;BME280;7697;51.630;7.484;2022-10-17T19:42:33;101723.34;;;18.77;100.00
15193;BME280;7697;51.630;7.484;2022-10-17T19:47:35;101728.72;;;18.77;100.00
15193;BME280;7697;51.630;7.484;2022-10-17T19:52:39;101723.78;;;18.73;100.00
15193;BME280;7697;51.630;7.484;2022-10-17T19:57:40;101727.97;;;18.69;100.00
15193;BME280;7697;51.630;7.484;2022-10-17T20:02:42;101736.69;;;18.65;100.00
15193;BME280;7697;51.630;7.484;2022-10-17T20:07:45;101736.69;;;18.65;100.00
15193;BME280;7697;51.630;7.484;2022-10-17T20:12:47;101729.06;;;18.62;100.00
15193;BME280;7697;51.630;7.484;2022-10-17T20:17:48;101746.00;;;18.62;100.00
15193;BME280;7697;51.630;7.484;2022-10-17T20:22:52;101747.03;;;18.61;100.00
15193;BME280;7697;51.630;7.484;2022-10-17T20:27:53;101751.63;;;18.54;100.00
15193;BME280;7697;51.630;7.484;2022-10-17T20:32:55;101747.28;;;18.53;100.00
15193;BME280;7697;51.630;7.484;2022-10-17T20:37:58;101750.66;;;18.49;100.00
15193;BME280;7697;51.630;7.484;2022-10-17T20:43:00;101756.25;;;18.47;100.00
15193;BME280;7697;51.630;7.484;2022-10-17T20:48:02;101753.16;;;18.44;100.00
15193;BME280;7697;51.630;7.484;2022-10-17T20:53:05;101757.50;;;18.45;100.00
15193;BME280;7697;51.630;7.484;2022-10-17T20:58:08;101762.50;;;18.41;100.00
15193;BME280;7697;51.630;7.484;2022-10-17T21:03:10;101758.00;;;18.35;100.00
15193;BME280;7697;51.630;7.484;2022-10-17T21:08:13;101749.97;;;18.35;100.00
15193;BME280;7697;51.630;7.484;2022-10-17T21:13:15;101750.84;;;18.29;100.00
15193;BME280;7697;51.630;7.484;2022-10-17T21:18:17;101761.44;;;18.24;100.00
15193;BME280;7697;51.630;7.484;2022-10-17T21:23:20;101773.34;;;18.28;100.00
15193;BME280;7697;51.630;7.484;2022-10-17T21:28:22;101788.84;;;18.26;100.00
15193;BME280;7697;51.630;7.484;2022-10-17T21:33:27;101795.50;;;18.17;100.00
15193;BME280;7697;51.630;7.484;2022-10-17T21:38:30;101794.53;;;18.11;100.00
15193;BME280;7697;51.630;7.484;2022-10-17T21:43:32;101791.91;;;18.05;100.00
15193;BME280;7697;51.630;7.484;2022-10-17T21:48:35;101800.19;;;18.03;100.00
15193;BME280;7697;51.630;7.484;2022-10-17T21:53:38;101806.34;;;18.04;100.00
15193;BME280;7697;51.630;7.484;2022-10-17T21:58:40;101805.13;;;17.99;100.00
15193;BME280;7697;51.630;7.484;2022-10-17T22:03:43;101808.50;;;17.95;100.00
15193;BME280;7697;51.630;7.484;2022-10-17T22:08:47;101818.59;;;17.93;100.00
15193;BME280;7697;51.630;7.484;2022-10-17T22:13:52;101817.56;;;17.94;100.00
15193;BME280;7697;51.630;7.484;2022-10-17T22:18:55;101820.03;;;17.95;100.00
15193;BME280;7697;51.630;7.484;2022-10-17T22:23:59;101815.91;;;17.93;100.00
15193;BME280;7697;51.630;7.484;2022-10-17T22:29:03;101814.31;;;17.85;100.00
15193;BME280;7697;51.630;7.484;2022-10-17T22:34:05;101808.56;;;17.82;100.00
15193;BME280;7697;51.630;7.484;2022-10-17T22:39:09;101811.50;;;17.80;100.00
15193;BME280;7697;51.630;7.484;2022-10-17T22:44:11;101815.19;;;17.79;100.00
15193;BME280;7697;51.630;7.484;2022-10-17T22:49:13;101813.97;;;17.75;100.00
15193;BME280;7697;51.630;7.484;2022-10-17T22:54:16;101825.31;;;17.77;100.00
15193;BME280;7697;51.630;7.484;2022-10-17T22:59:18;101824.69;;;17.75;100.00
15193;BME280;7697;51.630;7.484;2022-10-17T23:04:19;101826.56;;;17.75;100.00
15193;BME280;7697;51.630;7.484;2022-10-17T23:09:22;101827.59;;;17.74;100.00
15193;BME280;7697;51.630;7.484;2022-10-17T23:14:24;101841.44;;;17.71;100.00
15193;BME280;7697;51.630;7.484;2022-10-17T23:19:26;101845.97;;;17.70;100.00
15193;BME280;7697;51.630;7.484;2022-10-17T23:24:29;101834.03;;;17.66;100.00
15193;BME280;7697;51.630;7.484;2022-10-17T23:29:31;101825.16;;;17.66;100.00
15193;BME280;7697;51.630;7.484;2022-10-17T23:34:33;101819.00;;;17.58;100.00
15193;BME280;7697;51.630;7.484;2022-10-17T23:39:37;101826.81;;;17.60;100.00
15193;BME280;7697;51.630;7.484;2022-10-17T23:44:38;101833.00;;;17.60;100.00
15193;BME280;7697;51.630;7.484;2022-10-17T23:49:40;101825.59;;;17.56;100.00
15193;BME280;7697;51.630;7.484;2022-10-17T23:54:43;101821.72;;;17.52;100.00
15193;BME280;7697;51.630;7.484;2022-10-17T23:59:45;101824.00;;;17.48;100.00
